Time;durP1;ratioP1;P1;durP2;ratioP2;P2;SDS_P1;SDS_P2;PMS_P1;PMS_P2;Temp;Humidity;BMP_temperature;BMP_pressure;BME280_temperature;BME280_humidity;BME280_pressure;Samples;Min_cycle;Max_cycle;Signal;HPM_P1;HPM_P2
2021/11/19 00:01:20;;;;;;;56.83;26.48;;;;;;;6.42;100.00;98442.97;5041164;28;20089;-89
2021/11/19 00:03:47;;;;;;;45.17;19.92;;;;;;;6.47;100.00;98449.00;5040225;28;20025;-90
2021/11/19 00:06:13;;;;;;;49.80;24.02;;;;;;;6.46;100.00;98439.31;5040090;28;20027;-92
2021/11/19 00:08:39;;;;;;;61.38;27.42;;;;;;;6.32;100.00;98423.78;5040628;28;20143;-90
2021/11/19 00:11:08;;;;;;;69.53;29.40;;;;;;;6.52;100.00;98436.47;5041369;28;20028;-89
2021/11/19 00:13:34;;;;;;;50.75;26.40;;;;;;;6.45;100.00;98433.13;5046033;28;20025;-91
2021/11/19 00:15:59;;;;;;;46.03;23.50;;;;;;;6.47;100.00;98444.56;5040406;28;20036;-91
2021/11/19 00:18:26;;;;;;;42.28;21.08;;;;;;;6.36;100.00;98443.16;5041938;28;20462;-92
2021/11/19 00:20:53;;;;;;;43.10;20.85;;;;;;;6.41;100.00;98451.84;5040779;28;20039;-91
2021/11/19 00:23:21;;;;;;;38.03;19.98;;;;;;;6.44;100.00;98449.09;5026937;28;20020;-91
2021/11/19 00:25:47;;;;;;;42.13;20.17;;;;;;;6.39;100.00;98453.69;5040178;28;20050;-91
2021/11/19 00:28:14;;;;;;;39.22;19.85;;;;;;;6.41;100.00;98442.09;5040298;28;20089;-91
2021/11/19 00:30:40;;;;;;;37.55;17.27;;;;;;;6.43;100.00;98450.00;5041284;28;20029;-90
2021/11/19 00:33:07;;;;;;;42.50;20.83;;;;;;;6.58;100.00;98460.19;5039014;28;20406;-89
2021/11/19 00:35:34;;;;;;;33.83;18.27;;;;;;;6.52;100.00;98453.25;5038922;28;20031;-91
2021/11/19 00:38:00;;;;;;;37.85;18.45;;;;;;;6.59;100.00;98461.91;5038412;28;20036;-90
2021/11/19 00:41:03;;;;;;;38.42;19.20;;;;;;;6.57;100.00;98458.44;5038256;28;20128;-89
2021/11/19 00:43:29;;;;;;;40.22;19.92;;;;;;;6.50;100.00;98473.69;5053856;28;20510;-89
2021/11/19 00:45:57;;;;;;;45.35;21.58;;;;;;;6.46;100.00;98465.88;5039185;28;20032;-89
2021/11/19 00:48:24;;;;;;;42.13;20.13;;;;;;;6.37;100.00;98455.50;5039975;28;20024;-89
2021/11/19 00:50:56;;;;;;;42.45;20.52;;;;;;;6.36;100.00;98465.28;5038734;28;20016;-89
2021/11/19 00:53:22;;;;;;;40.38;18.83;;;;;;;6.28;100.00;98463.75;5035512;28;20048;-88
2021/11/19 00:55:48;;;;;;;36.58;19.10;;;;;;;6.31;100.00;98445.94;5041210;28;20025;-89
2021/11/19 00:58:15;;;;;;;39.35;18.23;;;;;;;6.49;100.00;98460.47;5035421;28;20029;-90
2021/11/19 01:00:54;;;;;;;35.67;18.25;;;;;;;6.43;100.00;98452.66;5050539;28;20025;-88
2021/11/19 01:03:23;;;;;;;40.17;18.63;;;;;;;6.26;100.00;98449.66;5035460;28;20377;-90
2021/11/19 01:05:50;;;;;;;38.50;18.27;;;;;;;6.21;100.00;98449.81;5035778;28;20017;-89
2021/11/19 01:08:17;;;;;;;39.03;19.08;;;;;;;6.28;100.00;98463.75;5053004;28;20575;-89
2021/11/19 01:10:44;;;;;;;43.72;19.50;;;;;;;6.21;100.00;98457.78;5036318;28;20052;-89
2021/11/19 01:13:10;;;;;;;41.50;19.73;;;;;;;6.15;100.00;98449.13;5036145;28;20037;-91
2021/11/19 01:15:41;;;;;;;38.08;17.67;;;;;;;6.16;100.00;98449.06;5044927;28;20035;-91
2021/11/19 01:18:22;;;;;;;42.22;19.17;;;;;;;6.19;100.00;98448.09;5041321;28;20040;-90
2021/11/19 01:20:52;;;;;;;37.45;19.45;;;;;;;6.09;100.00;98428.91;5039120;28;20107;-90
2021/11/19 01:23:21;;;;;;;44.63;19.92;;;;;;;6.20;100.00;98447.19;5038904;28;20028;-90
2021/11/19 01:25:54;;;;;;;44.55;20.65;;;;;;;6.23;100.00;98447.09;5039753;28;20025;-89
2021/11/19 01:28:21;;;;;;;43.55;20.27;;;;;;;6.13;100.00;98437.66;5038657;28;20562;-89
2021/11/19 01:30:57;;;;;;;57.33;21.27;;;;;;;6.04;100.00;98424.66;5040548;28;20171;-90
2021/11/19 01:33:24;;;;;;;76.03;25.70;;;;;;;6.18;100.00;98436.63;5039385;28;20112;-90
2021/11/19 01:35:50;;;;;;;44.17;20.13;;;;;;;6.21;100.00;98427.69;5039492;28;20021;-90
2021/11/19 01:38:16;;;;;;;54.28;22.13;;;;;;;6.18;100.00;98427.78;5032475;28;20033;-89
2021/11/19 01:40:46;;;;;;;48.60;21.70;;;;;;;6.26;100.00;98431.94;5039314;28;20040;-90
2021/11/19 01:43:13;;;;;;;45.80;20.75;;;;;;;6.24;100.00;98432.91;5039118;28;20124;-92
2021/11/19 01:45:47;;;;;;;51.30;23.25;;;;;;;6.24;100.00;98427.59;5055983;28;20027;-92
2021/11/19 01:48:14;;;;;;;48.67;20.95;;;;;;;6.17;100.00;98410.09;5039066;28;20038;-92
2021/11/19 01:50:55;;;;;;;43.10;20.70;;;;;;;6.33;100.00;98422.88;5050787;28;20059;-91
2021/11/19 01:53:29;;;;;;;38.15;18.80;;;;;;;6.30;100.00;98414.13;5048464;28;20526;-91
2021/11/19 01:56:09;;;;;;;35.92;17.67;;;;;;;6.42;100.00;98419.06;5037552;28;20040;-91
2021/11/19 01:58:43;;;;;;;34.80;18.40;;;;;;;6.37;100.00;98410.34;5089069;28;20033;-91
2021/11/19 02:01:31;;;;;;;38.25;19.75;;;;;;;6.33;100.00;98427.31;5072299;28;20044;-90
2021/11/19 02:04:00;;;;;;;45.97;19.40;;;;;;;6.29;100.00;98425.66;5039505;28;20473;-89
2021/11/19 02:06:34;;;;;;;48.50;21.00;;;;;;;6.31;100.00;98426.47;5059626;28;20057;-90
2021/11/19 02:09:00;;;;;;;50.53;23.33;;;;;;;6.30;100.00;98419.44;5056134;28;20034;-90
2021/11/19 02:11:31;;;;;;;47.97;22.67;;;;;;;6.37;100.00;98418.31;5057741;28;20025;-90
2021/11/19 02:14:45;;;;;;;52.47;23.63;;;;;;;6.33;100.00;98417.56;5052501;28;20033;-90
2021/11/19 02:17:10;;;;;;;;;;;;;;;6.35;100.00;98413.06;5021536;28;20071;-90
2021/11/19 02:19:47;;;;;;;58.90;28.08;;;;;;;6.29;100.00;98418.56;5020581;28;19951;-90
2021/11/19 02:22:31;;;;;;;52.97;24.60;;;;;;;6.25;100.00;98416.03;5064113;28;20064;-90
2021/11/19 02:25:07;;;;;;;49.50;23.45;;;;;;;6.25;100.00;98408.06;5012772;28;20041;-88
2021/11/19 02:27:42;;;;;;;50.30;22.33;;;;;;;6.22;100.00;98406.38;5028362;28;20095;-92
2021/11/19 02:30:16;;;;;;;52.33;23.95;;;;;;;6.31;100.00;98419.38;5059411;28;20116;-89
2021/11/19 02:32:45;;;;;;;50.88;23.70;;;;;;;6.29;100.00;98404.41;5058648;28;20029;-89
2021/11/19 02:35:16;;;;;;;52.17;24.15;;;;;;;6.31;100.00;98407.88;5044352;28;20029;-89
2021/11/19 02:37:47;;;;;;;49.80;24.33;;;;;;;6.27;100.00;98400.94;5053302;28;20133;-89
2021/11/19 02:40:20;;;;;;;51.60;25.25;;;;;;;6.23;100.00;98409.91;5069747;28;20476;-90
2021/11/19 02:42:50;;;;;;;57.38;25.83;;;;;;;6.26;100.00;98401.84;5038101;28;20082;-90
2021/11/19 02:45:34;;;;;;;55.05;26.60;;;;;;;6.20;100.00;98388.75;5059222;28;20048;-90
2021/11/19 02:48:02;;;;;;;51.33;24.25;;;;;;;6.27;100.00;98400.94;5060562;28;20528;-90
2021/11/19 02:50:28;;;;;;;48.42;23.17;;;;;;;6.38;100.00;98404.13;5062529;28;20021;-89
2021/11/19 02:52:57;;;;;;;50.05;23.70;;;;;;;6.44;100.00;98404.78;5068593;28;20040;-89
2021/11/19 02:55:26;;;;;;;51.80;23.30;;;;;;;6.45;100.00;98403.88;5043776;28;20028;-90
2021/11/19 02:57:54;;;;;;;50.55;24.15;;;;;;;6.36;100.00;98398.88;5051569;28;20465;-89
2021/11/19 03:00:26;;;;;;;55.22;26.20;;;;;;;6.31;100.00;98402.56;5037819;28;20476;-89
2021/11/19 03:02:52;;;;;;;;;;;;;;;6.36;100.00;98406.84;5044916;28;20112;-89
2021/11/19 03:05:20;;;;;;;77.15;28.70;;;;;;;6.34;100.00;98402.47;5038244;28;20159;-90
2021/11/19 03:07:45;;;;;;;88.97;33.05;;;;;;;6.16;100.00;98395.06;5045167;28;20067;-89
2021/11/19 03:10:24;;;;;;;85.07;31.67;;;;;;;6.15;100.00;98398.66;5054603;28;20041;-89
2021/11/19 03:12:51;;;;;;;77.95;34.45;;;;;;;6.26;100.00;98409.81;5022231;28;20098;-88
2021/11/19 03:15:20;;;;;;;72.35;31.02;;;;;;;6.22;100.00;98413.47;5038927;28;20558;-91
2021/11/19 03:17:46;;;;;;;65.82;30.77;;;;;;;6.21;100.00;98409.09;5053111;28;20032;-90
2021/11/19 03:20:14;;;;;;;71.60;32.03;;;;;;;6.14;100.00;98391.59;5038384;28;20060;-90
2021/11/19 03:22:40;;;;;;;61.33;28.67;;;;;;;6.23;100.00;98384.22;5056505;28;20029;-90
2021/11/19 03:25:09;;;;;;;63.75;28.85;;;;;;;6.29;100.00;98389.34;5044018;28;20051;-90
2021/11/19 03:27:35;;;;;;;64.10;30.30;;;;;;;6.30;100.00;98390.22;5053569;28;20029;-90
2021/11/19 03:30:01;;;;;;;68.30;34.10;;;;;;;6.31;100.00;98392.81;5038989;28;20376;-89
2021/11/19 03:32:29;;;;;;;73.65;34.25;;;;;;;6.30;100.00;98393.75;5037612;28;20032;-90
2021/11/19 03:34:55;;;;;;;68.03;29.85;;;;;;;6.16;100.00;98376.47;5050101;28;20033;-89
2021/11/19 03:37:21;;;;;;;58.10;27.08;;;;;;;6.15;100.00;98388.91;5036992;28;20040;-88
2021/11/19 03:39:46;;;;;;;56.40;25.65;;;;;;;6.20;100.00;98388.75;5054472;28;20024;-88
2021/11/19 03:42:13;;;;;;;57.20;25.65;;;;;;;6.17;100.00;98387.06;5054114;28;20025;-88
2021/11/19 03:44:46;;;;;;;58.78;25.48;;;;;;;6.28;100.00;98398.22;5044535;28;20552;-91
2021/11/19 03:47:25;;;;;;;62.33;24.60;;;;;;;6.22;100.00;98382.47;5037724;28;20408;-90
2021/11/19 03:49:53;;;;;;;57.85;26.20;;;;;;;6.21;100.00;98388.72;5049778;28;20033;-90
2021/11/19 03:52:26;;;;;;;59.50;25.67;;;;;;;6.14;100.00;98384.50;5041846;28;20110;-88
2021/11/19 03:54:52;;;;;;;;;;;;;;;6.13;100.00;98395.16;5035702;28;20025;-88
2021/11/19 03:57:19;;;;;;;51.20;23.50;;;;;;;6.07;100.00;98387.38;5040902;28;19908;-89
2021/11/19 03:59:45;;;;;;;63.88;25.98;;;;;;;5.97;100.00;98382.34;5057967;28;20021;-90
2021/11/19 04:02:15;;;;;;;65.35;25.77;;;;;;;6.02;100.00;98387.53;5040969;28;20028;-89
2021/11/19 04:04:42;;;;;;;66.13;27.65;;;;;;;6.04;100.00;98385.69;5039054;28;20020;-89
2021/11/19 04:07:10;;;;;;;75.88;30.42;;;;;;;6.01;100.00;98372.50;5040799;28;20029;-89
2021/11/19 04:09:36;;;;;;;73.45;31.48;;;;;;;6.09;100.00;98374.94;5040642;28;20021;-89
2021/11/19 04:12:02;;;;;;;74.88;30.88;;;;;;;6.04;100.00;98391.00;5042830;28;20066;-90
2021/11/19 04:14:29;;;;;;;83.93;33.70;;;;;;;5.97;100.00;98377.03;5041435;28;20499;-89
2021/11/19 04:16:56;;;;;;;76.47;30.58;;;;;;;5.99;100.00;98385.84;5040363;28;20052;-91
2021/11/19 04:19:23;;;;;;;92.85;38.15;;;;;;;6.00;100.00;98382.25;5041444;28;20032;-90
2021/11/19 04:21:51;;;;;;;88.72;39.15;;;;;;;6.10;100.00;98388.16;5041928;28;20054;-90
2021/11/19 04:24:21;;;;;;;89.82;37.35;;;;;;;6.10;100.00;98376.66;5041478;28;20028;-91
2021/11/19 04:26:48;;;;;;;81.90;34.25;;;;;;;6.17;100.00;98386.19;5042301;28;20112;-90
2021/11/19 04:29:13;;;;;;;75.78;32.22;;;;;;;6.12;100.00;98388.97;5041598;28;20488;-91
2021/11/19 04:31:39;;;;;;;69.72;32.08;;;;;;;6.09;100.00;98388.22;5050144;28;20146;-90
2021/11/19 04:34:07;;;;;;;74.20;32.45;;;;;;;6.13;100.00;98393.38;5041030;28;20143;-90
2021/11/19 04:36:33;;;;;;;88.50;37.90;;;;;;;6.09;100.00;98378.44;5024718;28;20051;-91
2021/11/19 04:38:59;;;;;;;80.55;34.83;;;;;;;6.23;100.00;98386.00;5059362;28;20408;-88
2021/11/19 04:41:25;;;;;;;70.40;30.90;;;;;;;6.20;100.00;98362.19;5040885;28;20033;-89
2021/11/19 04:43:50;;;;;;;72.05;29.92;;;;;;;6.18;100.00;98358.72;5040693;28;20458;-90
2021/11/19 04:46:17;;;;;;;66.30;27.85;;;;;;;6.34;100.00;98379.44;5057679;28;20037;-90
2021/11/19 04:48:42;;;;;;;72.25;29.73;;;;;;;6.31;100.00;98368.91;5039922;28;20525;-89
2021/11/19 04:51:14;;;;;;;75.68;29.15;;;;;;;6.31;100.00;98387.50;5042737;28;20060;-90
2021/11/19 04:53:40;;;;;;;65.88;28.02;;;;;;;6.30;100.00;98369.84;5041988;28;20056;-90
2021/11/19 04:56:07;;;;;;;66.03;27.48;;;;;;;6.45;100.00;98389.72;5043803;28;20037;-89
2021/11/19 04:58:44;;;;;;;57.42;27.95;;;;;;;6.45;100.00;98389.72;5045848;28;20086;-90
2021/11/19 05:01:17;;;;;;;55.53;26.20;;;;;;;6.26;100.00;98383.25;5035839;28;20199;-89
2021/11/19 05:03:43;;;;;;;67.68;27.98;;;;;;;6.33;100.00;98396.31;5043302;28;20013;-90
2021/11/19 05:06:09;;;;;;;63.97;27.73;;;;;;;6.13;100.00;98371.25;5043344;28;20083;-90
2021/11/19 05:08:35;;;;;;;67.70;28.63;;;;;;;6.17;100.00;98388.84;5041302;28;20546;-91
2021/11/19 05:11:02;;;;;;;64.82;28.02;;;;;;;6.22;100.00;98408.16;5041954;28;20028;-89
2021/11/19 05:13:31;;;;;;;68.85;28.23;;;;;;;6.20;100.00;98394.94;5057189;28;20059;-89
2021/11/19 05:15:59;;;;;;;63.30;28.00;;;;;;;6.19;100.00;98392.31;5060217;28;20029;-89
2021/11/19 05:18:26;;;;;;;68.30;28.65;;;;;;;6.22;100.00;98402.84;5044959;28;20032;-90
2021/11/19 05:20:52;;;;;;;63.20;28.20;;;;;;;6.24;100.00;98403.69;5056329;28;20025;-90
2021/11/19 05:23:18;;;;;;;67.03;27.98;;;;;;;6.18;100.00;98393.25;5041356;28;20021;-89
2021/11/19 05:25:44;;;;;;;69.57;28.00;;;;;;;6.20;100.00;98404.69;5056840;28;20029;-86
2021/11/19 05:28:12;;;;;;;66.95;28.35;;;;;;;6.16;100.00;98393.28;5039747;28;20036;-89
2021/11/19 05:30:39;;;;;;;68.28;28.88;;;;;;;6.28;100.00;98415.94;5040137;28;20031;-87
2021/11/19 06:02:01;;;;;;;;;;;;;;;;;;;;;
2021/11/19 06:12:35;;;;;;;;;;;;;;;;;;;;;
2021/11/19 07:01:01;;;;;;;59.95;28.95;;;;;;;7.43;100.00;98414.75;5630773;22;20427;-90
2021/11/19 07:23:49;;;;;;;42.97;21.20;;;;;;;7.47;100.00;98437.69;5071623;28;19927;-91
2021/11/19 07:27:16;;;;;;;78.70;35.78;;;;;;;7.07;100.00;98385.81;5065472;28;20408;-89
2021/11/19 07:29:52;;;;;;;41.80;22.13;;;;;;;7.30;100.00;98438.25;5016305;28;20029;-91
2021/11/19 07:32:57;;;;;;;;;;;;;;;;;;;;;
2021/11/19 07:35:39;;;;;;;42.33;21.25;;;;;;;6.96;100.00;98363.19;5013913;28;20116;-91
2021/11/19 07:42:34;;;;;;;;;;;;;;;;;;;;;
2021/11/19 07:52:15;;;;;;;85.05;41.78;;;;;;;6.79;100.00;98422.28;4901118;29;20104;-89
2021/11/19 07:54:40;;;;;;;77.10;36.90;;;;;;;6.71;100.00;98408.34;4897302;29;20055;-79
2021/11/19 07:57:07;;;;;;;79.57;37.20;;;;;;;6.85;100.00;98440.69;4905575;28;20381;-78
2021/11/19 07:59:34;;;;;;;77.70;35.78;;;;;;;6.95;100.00;98451.91;5032632;28;20142;-77
2021/11/19 08:02:00;;;;;;;72.15;35.88;;;;;;;7.03;100.00;98437.41;5042302;28;20056;-80
2021/11/19 08:04:27;;;;;;;79.40;39.70;;;;;;;7.14;100.00;98444.16;5053924;28;20027;-79
2021/11/19 08:06:53;;;;;;;79.82;37.72;;;;;;;7.22;100.00;98434.13;5048389;28;20070;-79
2021/11/19 08:09:58;;;;;;;80.95;40.20;;;;;;;7.54;100.00;98439.16;5052358;28;20032;-91
2021/11/19 08:16:53;;;;;;;;;;;;;;;;;;;;;
2021/11/19 08:54:37;;;;;;;;;;;;;;;;;;;;;
2021/11/19 09:04:26;;;;;;;36.20;20.17;;;;;;;9.32;97.88;98419.75;4884268;29;20105;-91
2021/11/19 09:06:54;;;;;;;41.78;22.00;;;;;;;9.08;99.18;98366.44;4873890;29;20056;-92
2021/11/19 09:09:30;;;;;;;46.25;25.38;;;;;;;9.12;100.00;98360.06;4998037;28;20355;-91
2021/11/19 09:11:56;;;;;;;47.72;26.00;;;;;;;9.05;100.00;98382.59;5000167;28;20038;-91
2021/11/19 09:14:23;;;;;;;53.45;27.30;;;;;;;9.36;100.00;98403.50;4974392;28;20125;-91
2021/11/19 09:17:04;;;;;;;53.05;29.08;;;;;;;9.72;100.00;98393.84;4963071;28;20070;-91
2021/11/19 09:19:39;;;;;;;46.35;24.92;;;;;;;9.73;99.28;98378.69;5034376;28;20116;-91
2021/11/19 09:22:50;;;;;;;42.88;24.58;;;;;;;9.81;98.13;98392.59;5033722;28;20476;-93
2021/11/19 09:25:18;;;;;;;42.10;23.52;;;;;;;9.20;100.00;98376.59;5032677;28;20045;-92
2021/11/19 09:27:58;;;;;;;45.60;24.52;;;;;;;9.10;100.00;98393.97;5044123;28;20041;-92
2021/11/19 09:30:37;;;;;;;43.13;24.85;;;;;;;9.08;100.00;98370.91;5033682;28;20021;-92
2021/11/19 09:33:09;;;;;;;46.38;22.98;;;;;;;9.30;100.00;98378.88;5029582;28;20037;-78
2021/11/19 09:35:35;;;;;;;45.17;24.35;;;;;;;9.31;100.00;98388.63;5068206;28;20033;-79
2021/11/19 09:38:42;;;;;;;51.50;25.70;;;;;;;9.20;100.00;98392.63;5039775;28;20067;-89
2021/11/19 09:41:37;;;;;;;59.63;31.23;;;;;;;8.84;100.00;98356.81;5041658;28;20045;-77
2021/11/19 09:44:08;;;;;;;56.00;29.05;;;;;;;9.00;100.00;98384.59;5025029;28;20029;-78
2021/11/19 09:46:56;;;;;;;66.17;31.53;;;;;;;8.96;100.00;98384.78;5029541;28;20052;-75
2021/11/19 09:49:48;;;;;;;52.13;28.10;;;;;;;9.10;100.00;98388.63;5036909;28;20508;-76
2021/11/19 09:52:47;;;;;;;48.97;26.75;;;;;;;9.19;100.00;98380.22;5031301;28;20497;-75
2021/11/19 09:55:38;;;;;;;43.22;24.63;;;;;;;9.15;100.00;98375.06;5032363;28;20103;-79
2021/11/19 09:58:12;;;;;;;43.30;24.35;;;;;;;9.15;100.00;98367.94;5047480;28;20070;-78
2021/11/19 10:00:53;;;;;;;46.30;26.92;;;;;;;9.20;100.00;98365.91;5027949;28;20062;-77
2021/11/19 10:03:37;;;;;;;45.72;25.38;;;;;;;9.39;100.00;98347.28;5038168;28;20105;-78
2021/11/19 10:06:11;;;;;;;38.72;22.50;;;;;;;9.45;97.37;98346.16;5050179;28;20143;-76
2021/11/19 10:08:57;;;;;;;39.15;23.90;;;;;;;9.57;95.66;98341.13;5044760;28;20407;-81
2021/11/19 10:11:42;;;;;;;36.30;21.77;;;;;;;9.79;93.00;98333.00;5042829;28;20086;-76
2021/11/19 10:14:27;;;;;;;38.88;21.77;;;;;;;9.95;88.83;98331.34;5068431;28;20591;-79
2021/11/19 10:17:22;;;;;;;37.17;19.77;;;;;;;10.14;86.03;98326.91;5028341;28;20083;-76
2021/11/19 10:19:57;;;;;;;34.58;20.90;;;;;;;10.29;84.43;98326.19;5042158;28;20052;-79
2021/11/19 10:22:25;;;;;;;48.13;28.17;;;;;;;10.54;82.63;98327.66;5040692;28;20040;-78
2021/11/19 10:24:59;;;;;;;33.60;17.98;;;;;;;10.61;78.48;98318.41;5054550;28;20033;-78
2021/11/19 10:27:30;;;;;;;36.13;22.13;;;;;;;10.68;79.17;98317.13;5054021;28;20507;-79
2021/11/19 10:30:09;;;;;;;42.40;23.42;;;;;;;10.95;78.29;98315.72;5039796;28;20028;-79
2021/11/19 10:32:35;;;;;;;69.18;38.75;;;;;;;11.17;76.01;98315.47;5059733;28;20127;-79
2021/11/19 10:35:13;;;;;;;40.75;20.15;;;;;;;11.33;70.70;98297.66;5037494;28;20056;-79
2021/11/19 10:37:56;;;;;;;29.48;16.85;;;;;;;11.42;68.49;98299.84;5057524;28;20033;-75
2021/11/19 10:41:00;;;;;;;39.60;20.33;;;;;;;11.79;66.83;98304.13;5057594;28;20043;-77
2021/11/19 10:43:44;;;;;;;25.42;11.73;;;;;;;11.81;63.02;98291.53;5058203;28;20412;-77
2021/11/19 10:46:28;;;;;;;17.30;9.02;;;;;;;12.03;60.74;98285.84;5062020;28;20064;-78
2021/11/19 10:48:53;;;;;;;16.73;9.50;;;;;;;11.93;61.93;98298.91;5060537;28;20076;-77
2021/11/19 10:51:41;;;;;;;15.30;9.45;;;;;;;11.97;60.36;98292.41;5052822;28;20496;-78
2021/11/19 10:54:37;;;;;;;17.45;8.60;;;;;;;11.99;59.48;98285.16;5060390;28;20115;-90
2021/11/19 10:57:10;;;;;;;14.65;8.55;;;;;;;11.82;60.22;98280.72;5088414;28;20059;-90
2021/11/19 10:59:43;;;;;;;9.27;5.68;;;;;;;12.07;57.55;98261.44;5066147;28;20064;-91
2021/11/19 11:02:36;;;;;;;11.57;6.60;;;;;;;12.47;56.21;98268.06;5046181;28;20020;-89
2021/11/19 11:05:17;;;;;;;10.50;6.25;;;;;;;11.98;56.66;98245.88;5048840;28;20128;-88
2021/11/19 11:08:09;;;;;;;8.98;5.57;;;;;;;12.27;57.04;98265.69;5050288;28;20123;-90
2021/11/19 11:10:42;;;;;;;10.07;5.50;;;;;;;12.94;52.32;98225.00;5073651;28;20032;-90
2021/11/19 11:13:29;;;;;;;20.35;10.98;;;;;;;13.11;51.84;98245.47;5052967;28;20487;-90
2021/11/19 11:16:06;;;;;;;8.70;6.07;;;;;;;12.95;52.27;98234.78;5054652;28;20032;-90
2021/11/19 11:18:36;;;;;;;7.60;5.20;;;;;;;12.89;51.06;98225.25;5046561;28;20028;-89
2021/11/19 11:21:14;;;;;;;30.88;18.63;;;;;;;13.02;51.76;98226.25;5033979;28;20095;-88
2021/11/19 11:24:06;;;;;;;8.80;5.18;;;;;;;13.21;51.99;98222.47;5044458;28;20017;-88
2021/11/19 11:26:53;;;;;;;12.98;8.10;;;;;;;13.88;51.33;98243.28;5049679;28;20043;-88
2021/11/19 11:29:19;;;;;;;9.52;5.80;;;;;;;14.50;47.37;98210.47;5058916;28;20040;-89
2021/11/19 11:32:09;;;;;;;26.77;14.77;;;;;;;14.81;48.42;98216.47;5055749;28;20568;-90
2021/11/19 11:34:44;;;;;;;7.20;4.88;;;;;;;15.18;45.07;98199.50;5032864;28;20025;-90
2021/11/19 11:37:48;;;;;;;5.70;4.35;;;;;;;14.14;46.83;98210.19;5055861;28;20024;-87
2021/11/19 11:40:51;;;;;;;12.07;5.43;;;;;;;14.86;45.79;98206.25;5072617;28;20032;-88
2021/11/19 11:43:34;;;;;;;;;;;;;;;15.95;43.15;98193.06;5067095;28;20062;-89
2021/11/19 11:46:20;;;;;;;13.45;6.18;;;;;;;15.49;45.40;98193.69;5033503;28;19918;-88
2021/11/19 11:49:16;;;;;;;12.57;8.70;;;;;;;15.49;44.27;98166.72;5057615;28;20028;-89
2021/11/19 11:52:19;;;;;;;12.63;7.15;;;;;;;16.20;43.06;98174.94;5058888;28;20412;-89
2021/11/19 11:55:08;;;;;;;;;;;;;;;17.88;40.67;98153.59;5066659;28;20092;-89
2021/11/19 11:58:05;;;;;;;15.13;7.80;;;;;;;18.43;38.40;98116.50;5070972;28;19912;-88
2021/11/19 12:01:02;;;;;;;;;;;;;;;;;;;;;
2021/11/19 12:04:02;;;;;;;12.23;7.50;;;;;;;17.00;39.60;98137.31;5055331;28;20119;-89
2021/11/19 12:06:33;;;;;;;8.50;4.82;;;;;;;15.90;40.98;98125.09;5066446;28;20605;-90
2021/11/19 12:09:35;;;;;;;9.60;4.93;;;;;;;16.12;41.07;98146.78;5062602;28;20059;-88
2021/11/19 12:12:13;;;;;;;10.02;4.70;;;;;;;15.42;42.84;98151.06;5055756;28;20020;-88
2021/11/19 12:15:03;;;;;;;7.88;4.75;;;;;;;15.30;41.93;98144.72;5060762;28;20036;-89
2021/11/19 12:17:47;;;;;;;10.93;5.65;;;;;;;15.63;40.89;98144.13;5076743;28;20040;-88
2021/11/19 12:20:19;;;;;;;12.05;6.75;;;;;;;16.04;40.83;98147.38;5077613;28;20129;-89
2021/11/19 12:23:20;;;;;;;11.70;5.43;;;;;;;14.72;42.78;98112.06;5058269;28;20090;-89
2021/11/19 12:26:01;;;;;;;16.42;11.77;;;;;;;14.90;42.46;98135.88;5053749;28;20044;-89
2021/11/19 12:28:38;;;;;;;10.35;6.68;;;;;;;14.97;43.29;98133.63;5060274;28;20023;-89
2021/11/19 12:32:13;;;;;;;18.08;12.13;;;;;;;16.49;39.79;98118.72;5067634;28;20353;-89
2021/11/19 12:35:08;;;;;;;18.30;11.10;;;;;;;16.22;40.02;98116.28;4995373;28;20035;-89
2021/11/19 12:38:12;;;;;;;19.20;11.02;;;;;;;16.70;38.81;98105.47;5012122;28;20553;-90
2021/11/19 12:40:50;;;;;;;10.63;6.85;;;;;;;17.05;39.13;98118.88;5019064;28;20039;-90
2021/11/19 12:43:44;;;;;;;10.45;7.05;;;;;;;16.95;38.66;98107.09;5062047;28;20127;-91
2021/11/19 12:46:43;;;;;;;17.80;7.63;;;;;;;16.80;38.59;98104.59;5071241;28;20028;-91
2021/11/19 12:49:46;;;;;;;13.27;9.57;;;;;;;17.37;36.90;98094.69;5070973;28;20024;-89
2021/11/19 12:52:18;;;;;;;10.52;5.70;;;;;;;17.30;37.23;98086.22;5055514;28;20031;-90
2021/11/19 12:55:05;;;;;;;28.52;19.80;;;;;;;17.19;38.22;98086.22;5061295;28;20114;-91
2021/11/19 12:57:52;;;;;;;15.70;8.30;;;;;;;16.77;39.09;98093.16;5060328;28;20028;-89
2021/11/19 13:00:36;;;;;;;14.15;9.18;;;;;;;17.11;37.07;98088.66;5060103;28;20104;-91
2021/11/19 13:03:27;;;;;;;12.13;5.88;;;;;;;17.31;37.67;98074.44;5063797;28;20028;-91
2021/11/19 13:06:14;;;;;;;26.02;13.38;;;;;;;17.50;36.21;98066.56;5062708;28;20052;-89
2021/11/19 13:08:54;;;;;;;16.70;10.25;;;;;;;16.18;38.21;98087.78;5046783;28;20024;-90
2021/11/19 13:11:39;;;;;;;24.13;13.60;;;;;;;16.13;39.02;98068.41;5059125;28;20341;-88
2021/11/19 13:14:24;;;;;;;27.88;14.10;;;;;;;15.37;39.44;98085.84;5050362;28;20056;-89
2021/11/19 13:17:29;;;;;;;49.90;27.98;;;;;;;15.22;41.18;98079.72;5072609;28;20578;-90
2021/11/19 13:19:55;;;;;;;50.50;24.48;;;;;;;15.49;39.78;98072.34;5008078;28;20108;-90
2021/11/19 13:22:23;;;;;;;36.70;17.60;;;;;;;15.40;40.11;98073.00;4990805;28;20057;-89
2021/11/19 13:25:25;;;;;;;37.35;19.58;;;;;;;15.11;40.53;98061.63;5043758;28;20044;-88
2021/11/19 13:27:54;;;;;;;28.85;16.90;;;;;;;14.61;41.14;98078.66;5071704;28;20055;-88
2021/11/19 13:30:22;;;;;;;27.52;16.35;;;;;;;13.93;42.60;98063.66;5062314;28;20384;-88
2021/11/19 13:33:04;;;;;;;37.75;18.92;;;;;;;13.62;44.14;98075.59;5076078;28;20461;-91
2021/11/19 13:35:59;;;;;;;37.13;22.50;;;;;;;14.31;44.56;98113.03;5053882;28;20077;-90
2021/11/19 13:38:26;;;;;;;33.08;20.60;;;;;;;14.98;42.47;98070.69;5050141;28;20384;-90
2021/11/19 13:41:37;;;;;;;30.48;16.35;;;;;;;15.70;40.27;98092.34;5053770;28;20552;-90
2021/11/19 13:44:03;;;;;;;36.13;19.83;;;;;;;16.00;40.40;98081.09;5067618;28;20036;-90
2021/11/19 13:46:47;;;;;;;27.55;16.92;;;;;;;15.78;39.38;98077.44;5051142;28;20457;-91
2021/11/19 13:49:17;;;;;;;40.83;25.65;;;;;;;15.40;40.86;98099.94;5048861;28;20028;-92
2021/11/19 13:51:57;;;;;;;27.85;17.17;;;;;;;13.93;43.91;98117.47;5043921;28;20032;-93
2021/11/19 13:54:32;;;;;;;23.65;14.77;;;;;;;13.82;44.52;98130.72;5076365;28;20032;-90
2021/11/19 13:57:15;;;;;;;23.08;13.98;;;;;;;13.63;44.87;98124.84;5043851;28;20488;-91
2021/11/19 14:00:09;;;;;;;24.95;14.60;;;;;;;13.15;46.68;98129.69;5075594;28;20032;-91
2021/11/19 14:02:44;;;;;;;38.33;24.42;;;;;;;12.99;47.88;98131.56;5052042;28;20542;-91
2021/11/19 14:05:48;;;;;;;29.65;16.95;;;;;;;12.85;47.80;98120.84;5068070;28;20134;-92
2021/11/19 14:08:28;;;;;;;40.90;23.48;;;;;;;12.94;46.80;98133.69;5029325;28;20032;-91
2021/11/19 14:10:57;;;;;;;36.25;21.02;;;;;;;13.08;47.16;98144.47;5060151;28;20521;-92
2021/11/19 14:13:30;;;;;;;31.88;18.58;;;;;;;13.34;46.36;98145.53;5063918;28;20059;-91
2021/11/19 14:16:14;;;;;;;41.15;24.40;;;;;;;12.91;48.46;98158.06;5066438;28;20089;-93
2021/11/19 14:18:57;;;;;;;32.72;18.33;;;;;;;12.64;48.24;98146.31;5044013;28;20020;-90
2021/11/19 14:24:33;;;;;;;43.42;26.67;;;;;;;12.10;51.15;98131.66;5067556;28;20063;-91
2021/11/19 14:27:18;;;;;;;45.17;23.15;;;;;;;11.86;52.56;98163.47;5090756;28;20043;-89
2021/11/19 14:30:28;;;;;;;66.45;36.90;;;;;;;11.34;53.55;98142.25;5086618;28;20029;-89
2021/11/19 14:33:03;;;;;;;50.67;27.38;;;;;;;11.19;54.38;98164.53;5078971;28;20032;-91
2021/11/19 14:45:18;;;;;;;64.85;35.00;;;;;;;9.22;61.60;98091.81;5267778;22;20057;-90
2021/11/19 14:48:08;;;;;;;68.93;36.35;;;;;;;9.42;61.19;98133.56;5059473;28;20514;-93
2021/11/19 14:51:02;;;;;;;228.48;103.45;;;;;;;9.31;62.85;98135.88;5054238;28;20016;-90
2021/11/19 14:53:59;;;;;;;130.18;58.53;;;;;;;9.24;63.57;98161.13;5074782;28;20036;-90
2021/11/19 14:57:13;;;;;;;375.85;173.73;;;;;;;9.04;66.42;98166.53;5049428;28;20024;-89
2021/11/19 14:59:57;;;;;;;131.13;51.92;;;;;;;8.60;68.24;98147.19;5061309;28;20098;-92
2021/11/19 15:02:35;;;;;;;1146.07;451.75;;;;;;;8.36;69.70;98137.63;5046305;28;20020;-90
2021/11/19 15:05:17;;;;;;;225.70;92.00;;;;;;;8.36;69.42;98153.59;5062297;28;20039;-90
2021/11/19 15:07:55;;;;;;;67.10;34.50;;;;;;;8.26;71.27;98158.44;5044857;28;20024;-89